Time;durP1;ratioP1;P1;durP2;ratioP2;P2;SDS_P1;SDS_P2;PMS_P1;PMS_P2;Temp;Humidity;BMP_temperature;BMP_pressure;BME280_temperature;BME280_humidity;BME280_pressure;Samples;Min_cycle;Max_cycle;Signal;HPM_P1;HPM_P2
2022/08/14 00:01:08;;;;;;;4.45;1.55;;;;;;;16.04;100.00;94367.19;5039950;28;20461;-94
2022/08/14 00:03:34;;;;;;;3.55;1.65;;;;;;;16.12;100.00;94365.66;5055146;28;20036;-94
2022/08/14 00:06:01;;;;;;;2.50;1.50;;;;;;;15.88;100.00;94369.38;5038538;28;20025;-94
2022/08/14 00:08:27;;;;;;;3.70;1.75;;;;;;;15.81;100.00;94367.13;5055315;28;20026;-94
2022/08/14 00:10:55;;;;;;;5.25;1.30;;;;;;;15.94;100.00;94362.94;5021854;28;20091;-94
2022/08/14 00:13:23;;;;;;;2.25;1.33;;;;;;;16.09;100.00;94361.75;5072192;28;20033;-93
2022/08/14 00:15:50;;;;;;;4.07;1.70;;;;;;;16.05;100.00;94360.00;5038558;28;20032;-95
2022/08/14 00:18:24;;;;;;;1.65;1.38;;;;;;;16.27;100.00;94353.91;5038504;28;20438;-94
2022/08/14 00:20:49;;;;;;;3.30;1.85;;;;;;;16.49;100.00;94352.31;5038718;28;20025;-94
2022/08/14 00:23:16;;;;;;;5.70;1.58;;;;;;;16.34;100.00;94356.91;5071574;28;20036;-94
2022/08/14 00:25:44;;;;;;;2.45;1.30;;;;;;;16.25;100.00;94343.66;5022408;28;20041;-94
2022/08/14 00:28:15;;;;;;;1.73;1.20;;;;;;;16.30;100.00;94349.91;5038498;28;20429;-94
2022/08/14 00:30:43;;;;;;;1.75;1.42;;;;;;;16.34;100.00;94335.78;5054680;28;20119;-95
2022/08/14 00:33:08;;;;;;;1.73;1.40;;;;;;;16.10;100.00;94346.69;5038192;28;20065;-94
2022/08/14 00:35:35;;;;;;;2.65;1.63;;;;;;;16.10;100.00;94349.34;5038531;28;20061;-95
2022/08/14 00:38:11;;;;;;;;;;;;;;;;;;;;;
2022/08/14 00:40:37;;;;;;;1.98;1.42;;;;;;;16.01;100.00;94338.72;5037916;28;20017;-94
2022/08/14 00:43:03;;;;;;;4.13;1.45;;;;;;;16.17;100.00;94328.53;5021179;28;20124;-93
2022/08/14 00:45:28;;;;;;;2.15;1.35;;;;;;;16.05;100.00;94336.22;5021278;28;20079;-93
2022/08/14 00:47:57;;;;;;;3.53;1.30;;;;;;;16.07;100.00;94342.03;5037631;28;20030;-93
2022/08/14 00:50:22;;;;;;;1.83;1.23;;;;;;;16.10;100.00;94341.41;5037766;28;20079;-93
2022/08/14 00:52:51;;;;;;;2.10;1.20;;;;;;;16.09;100.00;94340.63;5054406;28;20064;-93
2022/08/14 00:55:20;;;;;;;2.95;1.48;;;;;;;15.98;100.00;94336.66;5021313;28;20088;-93
2022/08/14 00:58:29;;;;;;;1.92;1.48;;;;;;;15.83;100.00;94332.50;5021868;28;20430;-94
2022/08/14 01:00:33;;;;;;;5.45;1.40;;;;;;;15.67;100.00;94324.94;5037405;28;20029;-93
2022/08/14 01:02:59;;;;;;;4.88;1.67;;;;;;;15.81;100.00;94321.47;5037207;28;20037;-93
2022/08/14 01:05:27;;;;;;;1.67;1.30;;;;;;;15.90;100.00;94316.28;5021273;28;20025;-93
2022/08/14 01:07:56;;;;;;;1.58;1.20;;;;;;;16.10;100.00;94318.38;5021514;28;20083;-93
2022/08/14 01:10:49;;;;;;;2.42;1.30;;;;;;;15.94;100.00;94317.22;5053768;28;20021;-93
2022/08/14 01:13:15;;;;;;;6.45;1.33;;;;;;;15.67;100.00;94309.09;5065108;28;20033;-95
2022/08/14 01:15:45;;;;;;;2.78;1.50;;;;;;;15.68;100.00;94305.38;5067798;28;20049;-94
2022/08/14 01:21:02;;;;;;;2.78;1.70;;;;;;;15.68;100.00;94300.09;5065659;28;20036;-93
2022/08/14 01:23:28;;;;;;;1.30;1.05;;;;;;;15.64;100.00;94298.34;5021535;28;20025;-94
2022/08/14 01:25:54;;;;;;;1.88;1.40;;;;;;;15.57;100.00;94287.44;5020569;28;20338;-94
2022/08/14 01:28:25;;;;;;;3.40;1.67;;;;;;;15.73;100.00;94287.84;5053445;28;20033;-93
2022/08/14 01:30:54;;;;;;;2.67;1.70;;;;;;;15.90;100.00;94277.41;5037045;28;20030;-94
2022/08/14 01:33:21;;;;;;;2.00;1.63;;;;;;;15.91;100.00;94268.38;5037881;28;20029;-94
2022/08/14 01:35:47;;;;;;;6.50;1.70;;;;;;;15.94;100.00;94267.81;5020349;28;20026;-93
2022/08/14 01:38:16;;;;;;;2.53;1.60;;;;;;;15.79;100.00;94266.28;5036825;28;20425;-94
2022/08/14 01:40:41;;;;;;;2.30;1.70;;;;;;;15.77;100.00;94265.03;5037056;28;20033;-93
2022/08/14 01:43:16;;;;;;;2.05;1.48;;;;;;;15.81;100.00;94264.13;5053703;28;20112;-94
2022/08/14 01:45:50;;;;;;;2.25;1.50;;;;;;;15.67;100.00;94263.41;5037655;28;20052;-94
2022/08/14 01:48:16;;;;;;;2.65;1.63;;;;;;;15.45;100.00;94261.56;5037783;28;20022;-93
2022/08/14 01:50:47;;;;;;;1.50;1.25;;;;;;;15.53;100.00;94258.97;5037621;28;20017;-94
2022/08/14 01:53:13;;;;;;;4.28;1.65;;;;;;;15.67;100.00;94258.94;5068581;28;20060;-94
2022/08/14 01:55:38;;;;;;;2.05;1.40;;;;;;;15.48;100.00;94263.59;5053499;28;20056;-95
2022/08/14 01:58:04;;;;;;;2.63;1.70;;;;;;;15.35;100.00;94262.59;5020251;28;20033;-94
2022/08/14 02:00:30;;;;;;;4.45;1.80;;;;;;;15.35;100.00;94262.59;5019931;28;20025;-94
2022/08/14 02:02:57;;;;;;;4.55;1.77;;;;;;;15.33;100.00;94265.53;5053238;28;20496;-94
2022/08/14 02:05:33;;;;;;;2.50;1.70;;;;;;;15.29;100.00;94263.81;5020164;28;20079;-94
2022/08/14 02:08:02;;;;;;;2.15;1.45;;;;;;;15.13;100.00;94269.41;5021336;28;20458;-94
2022/08/14 02:10:30;;;;;;;2.85;1.60;;;;;;;15.01;100.00;94267.28;5020311;28;20044;-94
2022/08/14 02:12:56;;;;;;;3.20;1.85;;;;;;;15.25;100.00;94259.09;5020346;28;20347;-94
2022/08/14 02:15:22;;;;;;;2.33;1.50;;;;;;;15.27;100.00;94262.22;5019587;28;20025;-94
2022/08/14 02:17:49;;;;;;;1.70;1.33;;;;;;;15.21;100.00;94262.66;5069632;28;20032;-94
2022/08/14 02:20:16;;;;;;;2.72;1.80;;;;;;;15.20;100.00;94259.22;5069832;28;20108;-94
2022/08/14 02:22:42;;;;;;;2.28;1.60;;;;;;;15.36;100.00;94256.22;5052545;28;20025;-94
2022/08/14 02:25:08;;;;;;;3.00;1.40;;;;;;;15.62;100.00;94250.34;5019625;28;20025;-94
2022/08/14 02:27:36;;;;;;;3.03;1.73;;;;;;;15.62;100.00;94247.72;5035759;28;20075;-93
2022/08/14 02:30:02;;;;;;;2.08;1.50;;;;;;;15.87;100.00;94251.56;5036195;28;20025;-93
2022/08/14 02:32:33;;;;;;;1.80;1.52;;;;;;;16.05;100.00;94251.66;5069439;28;20021;-93
2022/08/14 02:34:59;;;;;;;3.67;1.85;;;;;;;16.05;100.00;94249.81;5035950;28;20053;-94
2022/08/14 02:37:25;;;;;;;2.05;1.50;;;;;;;16.24;100.00;94246.94;5036124;28;20319;-95
2022/08/14 02:39:50;;;;;;;2.55;1.50;;;;;;;16.31;100.00;94237.78;5052518;28;20029;-93
2022/08/14 02:42:20;;;;;;;2.28;1.40;;;;;;;16.33;100.00;94230.31;5068991;28;20025;-94
2022/08/14 02:44:45;;;;;;;2.60;1.98;;;;;;;16.25;100.00;94221.28;5035863;28;20347;-94
2022/08/14 02:47:14;;;;;;;2.70;1.58;;;;;;;16.17;100.00;94217.53;5069427;28;20037;-94
2022/08/14 02:49:41;;;;;;;5.28;1.60;;;;;;;15.97;100.00;94214.34;5036556;28;20053;-93
2022/08/14 02:52:07;;;;;;;1.75;1.48;;;;;;;15.71;100.00;94216.84;5068976;28;20446;-94
2022/08/14 02:54:33;;;;;;;2.80;1.58;;;;;;;15.50;100.00;94222.63;5035587;28;20033;-93
2022/08/14 02:57:00;;;;;;;2.00;1.38;;;;;;;15.59;100.00;94217.41;5035760;28;20485;-94
2022/08/14 02:59:31;;;;;;;2.38;1.52;;;;;;;15.72;100.00;94222.91;5035970;28;20065;-93
2022/08/14 03:01:57;;;;;;;3.13;1.80;;;;;;;15.59;100.00;94214.00;5020007;28;20031;-94
2022/08/14 03:07:45;;;;;;;3.67;1.40;;;;;;;15.53;100.00;94213.34;5036552;28;20105;-92
2022/08/14 03:10:11;;;;;;;3.42;1.38;;;;;;;15.39;100.00;94208.13;5035633;28;20065;-93
2022/08/14 03:12:36;;;;;;;2.45;1.70;;;;;;;15.43;100.00;94205.66;5019150;28;20065;-93
2022/08/14 03:15:12;;;;;;;2.50;1.48;;;;;;;15.35;100.00;94209.81;5019113;28;20021;-93
2022/08/14 03:17:38;;;;;;;1.98;1.50;;;;;;;15.37;100.00;94205.78;5035554;28;20021;-94
2022/08/14 03:20:05;;;;;;;2.60;2.10;;;;;;;15.34;100.00;94210.88;5019224;28;20335;-93
2022/08/14 03:22:32;;;;;;;1.73;1.40;;;;;;;15.26;100.00;94204.47;5052222;28;20087;-93
2022/08/14 03:24:59;;;;;;;2.05;1.40;;;;;;;15.30;100.00;94202.78;5019277;28;20030;-93
2022/08/14 03:27:30;;;;;;;3.78;1.80;;;;;;;15.30;100.00;94197.50;5019168;28;20041;-93
2022/08/14 03:29:55;;;;;;;2.72;1.70;;;;;;;15.29;100.00;94203.88;5019754;28;20025;-93
2022/08/14 03:32:23;;;;;;;7.43;1.85;;;;;;;15.29;100.00;94205.75;5019037;28;20025;-93
2022/08/14 03:34:49;;;;;;;3.83;1.63;;;;;;;15.40;100.00;94196.47;5019671;28;20083;-94
2022/08/14 03:37:15;;;;;;;2.28;1.60;;;;;;;15.56;100.00;94194.25;5035455;28;20028;-93
2022/08/14 03:39:40;;;;;;;2.97;1.75;;;;;;;15.69;100.00;94203.94;5037612;28;20021;-93
2022/08/14 03:42:06;;;;;;;2.92;1.80;;;;;;;15.61;100.00;94195.97;5022812;28;20025;-93
2022/08/14 03:44:34;;;;;;;2.42;1.58;;;;;;;15.46;100.00;94199.78;5038834;28;20025;-92
2022/08/14 03:46:59;;;;;;;3.05;1.98;;;;;;;15.23;100.00;94205.06;5038963;28;20427;-94
2022/08/14 03:49:25;;;;;;;2.15;1.63;;;;;;;15.09;100.00;94208.56;5038975;28;20025;-94
2022/08/14 03:51:50;;;;;;;1.70;1.42;;;;;;;15.14;100.00;94210.28;5040158;28;20132;-93
2022/08/14 03:54:16;;;;;;;2.83;1.90;;;;;;;15.04;100.00;94206.00;5072435;28;20026;-93
2022/08/14 03:56:43;;;;;;;3.05;1.70;;;;;;;15.29;100.00;94209.16;5022391;28;20030;-94
2022/08/14 03:59:12;;;;;;;4.15;1.75;;;;;;;15.84;100.00;94199.34;5071272;28;20438;-93
2022/08/14 04:01:38;;;;;;;6.95;1.88;;;;;;;15.99;100.00;94200.06;5038470;28;20354;-93
2022/08/14 04:04:05;;;;;;;2.90;1.73;;;;;;;15.82;100.00;94199.63;5039594;28;20074;-94
2022/08/14 04:06:36;;;;;;;2.47;1.63;;;;;;;15.64;100.00;94196.16;5038507;28;20419;-94
2022/08/14 04:09:05;;;;;;;2.75;1.92;;;;;;;15.61;100.00;94193.34;5038455;28;20053;-94
2022/08/14 04:11:31;;;;;;;2.97;1.63;;;;;;;15.45;100.00;94198.22;5038329;28;20065;-93
2022/08/14 04:13:56;;;;;;;4.97;1.70;;;;;;;15.34;100.00;94197.69;5038407;28;20075;-93
2022/08/14 04:16:22;;;;;;;4.97;1.90;;;;;;;15.17;100.00;94200.97;5071577;28;20021;-94
2022/08/14 04:18:53;;;;;;;1.83;1.50;;;;;;;15.09;100.00;94198.00;5055005;28;20035;-94
2022/08/14 04:21:23;;;;;;;2.95;1.92;;;;;;;15.10;100.00;94193.47;5055253;28;20339;-93
2022/08/14 04:23:58;;;;;;;1.92;1.55;;;;;;;15.07;100.00;94192.25;5045205;28;20034;-96
2022/08/14 04:26:32;;;;;;;2.05;1.60;;;;;;;15.14;100.00;94181.28;5026056;28;20052;-95
2022/08/14 04:29:09;;;;;;;;;;;;;;;;;;;;;
2022/08/14 04:31:45;;;;;;;;;;;;;;;;;;;;;
2022/08/14 04:34:20;;;;;;;;;;;;;;;;;;;;;
2022/08/14 04:48:27;;;;;;;2.30;1.73;;;;;;;15.31;100.00;94170.03;5038905;28;20508;-95
2022/08/14 04:50:54;;;;;;;7.20;1.85;;;;;;;15.31;100.00;94170.03;5037845;28;20057;-95
2022/08/14 04:56:43;;;;;;;2.00;1.58;;;;;;;15.28;100.00;94162.72;5038821;28;20031;-94
2022/08/14 04:59:16;;;;;;;2.47;1.70;;;;;;;15.29;100.00;94171.44;5071141;28;20334;-94
2022/08/14 05:01:49;;;;;;;1.73;1.50;;;;;;;15.37;100.00;94168.84;5037765;28;20033;-95
2022/08/14 05:04:18;;;;;;;2.45;1.77;;;;;;;15.52;100.00;94174.81;5022443;28;20268;-94
2022/08/14 05:06:53;;;;;;;;;;;;;;;;;;;;;
2022/08/14 05:09:29;;;;;;;;;;;;;;;;;;;;;
2022/08/14 05:12:04;;;;;;;;;;;;;;;;;;;;;
2022/08/14 05:14:32;;;;;;;6.53;1.50;;;;;;;15.83;100.00;94174.00;5038095;28;20031;-93
2022/08/14 05:16:58;;;;;;;2.97;1.60;;;;;;;15.92;100.00;94174.06;5069703;28;20423;-93
2022/08/14 05:19:26;;;;;;;2.53;1.70;;;;;;;15.95;100.00;94178.75;5070186;28;20119;-92
2022/08/14 05:22:00;;;;;;;2.10;1.60;;;;;;;16.05;100.00;94180.31;5020848;28;20053;-92
2022/08/14 05:24:28;;;;;;;3.55;1.70;;;;;;;16.11;100.00;94179.88;5067870;28;20029;-92
2022/08/14 05:26:58;;;;;;;3.70;1.58;;;;;;;16.16;100.00;94181.59;5037139;28;20047;-92
2022/08/14 05:29:28;;;;;;;3.42;1.75;;;;;;;16.28;100.00;94180.25;5036503;28;20041;-92
2022/08/14 05:32:05;;;;;;;;;;;;;;;;;;;;;
2022/08/14 05:34:41;;;;;;;2.55;1.67;;;;;;;16.55;100.00;94187.13;5036682;28;20048;-92
2022/08/14 05:37:08;;;;;;;2.92;2.00;;;;;;;16.60;100.00;94183.56;5067637;28;20029;-92
2022/08/14 05:39:41;;;;;;;3.03;1.67;;;;;;;16.68;100.00;94185.44;5069074;28;20029;-92
2022/08/14 05:42:09;;;;;;;1.90;1.70;;;;;;;16.74;100.00;94184.19;5052088;28;20042;-92
2022/08/14 05:44:34;;;;;;;2.08;1.50;;;;;;;16.94;100.00;94179.38;5068935;28;20051;-92
2022/08/14 05:47:00;;;;;;;3.50;1.67;;;;;;;17.07;100.00;94183.78;5052937;28;20124;-92
2022/08/14 05:49:29;;;;;;;2.03;1.52;;;;;;;17.28;100.00;94182.31;5036136;28;20354;-92
2022/08/14 05:52:00;;;;;;;3.10;1.20;;;;;;;17.45;100.00;94189.47;5036388;28;20030;-92
2022/08/14 05:54:25;;;;;;;4.93;1.90;;;;;;;17.60;100.00;94190.84;5037635;28;20029;-92
2022/08/14 05:57:01;;;;;;;;;;;;;;;;;;;;;
2022/08/14 05:59:27;;;;;;;1.98;1.58;;;;;;;17.93;100.00;94193.69;5037395;28;20029;-93
2022/08/14 06:01:52;;;;;;;3.33;1.85;;;;;;;18.05;100.00;94184.31;5052015;28;20495;-93
2022/08/14 06:04:28;;;;;;;;;;;;;;;;;;;;;
2022/08/14 06:06:54;;;;;;;3.08;1.60;;;;;;;18.28;100.00;94184.81;5037173;28;20039;-93
2022/08/14 06:09:22;;;;;;;3.10;1.50;;;;;;;18.40;100.00;94194.75;5069836;28;20441;-92
2022/08/14 06:11:52;;;;;;;3.83;1.52;;;;;;;18.40;100.00;94186.78;5020079;28;20363;-93
2022/08/14 06:14:20;;;;;;;3.55;1.63;;;;;;;18.35;100.00;94182.44;5052444;28;20454;-91
2022/08/14 06:16:46;;;;;;;1.77;1.50;;;;;;;18.20;100.00;94190.94;5020174;28;20029;-93
2022/08/14 06:19:16;;;;;;;3.08;1.67;;;;;;;18.48;100.00;94191.25;5069065;28;20108;-92
2022/08/14 06:21:44;;;;;;;5.10;1.90;;;;;;;18.60;100.00;94181.81;5036108;28;20033;-94
2022/08/14 06:24:09;;;;;;;2.28;1.60;;;;;;;18.81;100.00;94181.84;5052596;28;20029;-92
2022/08/14 06:26:45;;;;;;;4.75;1.88;;;;;;;18.98;100.00;94175.63;5035897;28;20347;-95
2022/08/14 06:29:35;;;;;;;2.28;1.58;;;;;;;19.04;100.00;94177.00;5051518;28;20037;-96
2022/08/14 06:35:23;;;;;;;3.63;1.42;;;;;;;19.43;100.00;94162.75;5054809;28;20093;-96
2022/08/14 06:38:38;;;;;;;1.77;1.25;;;;;;;19.56;100.00;94156.34;5055900;28;20029;-96
2022/08/14 06:41:48;;;;;;;5.75;1.80;;;;;;;19.62;100.00;94154.25;5066462;28;20051;-96
2022/08/14 06:44:22;;;;;;;2.53;1.60;;;;;;;19.62;100.00;94155.03;5045414;28;20107;-96
2022/08/14 06:47:00;;;;;;;;;;;;;;;;;;;;;
2022/08/14 06:49:55;;;;;;;;;;;;;;;;;;;;;
2022/08/14 06:52:23;;;;;;;4.47;1.90;;;;;;;20.12;100.00;94143.66;5045398;28;20457;-96
2022/08/14 06:58:15;;;;;;;3.17;1.58;;;;;;;20.28;100.00;94159.75;5039638;28;20109;-95
2022/08/14 07:05:44;;;;;;;2.55;1.60;;;;;;;20.41;100.00;94155.94;5020914;28;20083;-94
2022/08/14 07:06:23;;;;;;;;;;;;;;;;;;;;;
2022/08/14 07:08:51;;;;;;;1.75;1.50;;;;;;;21.06;75.74;94149.03;5039539;28;20141;-94
2022/08/14 07:11:28;;;;;;;;;;;;;;;;;;;;;
2022/08/14 07:14:04;;;;;;;2.85;1.60;;;;;;;21.41;88.21;94159.06;5041725;28;20132;-95
2022/08/14 07:16:33;;;;;;;2.10;1.50;;;;;;;21.54;91.27;94161.69;5023864;28;20026;-95
2022/08/14 07:19:08;;;;;;;;;;;;;;;;;;;;;
2022/08/14 07:21:36;;;;;;;2.35;1.40;;;;;;;21.81;94.15;94165.44;5070104;28;20055;-95
2022/08/14 07:24:07;;;;;;;2.22;1.30;;;;;;;21.91;100.00;94168.69;5025976;28;20025;-95
2022/08/14 07:26:35;;;;;;;2.40;1.48;;;;;;;21.94;100.00;94166.13;5045236;28;20037;-95
2022/08/14 07:29:00;;;;;;;5.70;1.60;;;;;;;22.00;90.01;94154.06;5042903;28;20034;-94
2022/08/14 07:31:47;;;;;;;1.70;1.30;;;;;;;22.00;88.63;94161.31;5038765;28;20036;-94
2022/08/14 07:34:22;;;;;;;;;;;;;;;;;;;;;
2022/08/14 07:36:47;;;;;;;3.92;1.55;;;;;;;22.21;73.19;94155.69;5058890;28;20021;-93
2022/08/14 07:39:15;;;;;;;2.42;1.40;;;;;;;22.40;89.29;94157.63;5059849;28;20112;-92
2022/08/14 07:41:43;;;;;;;1.73;1.25;;;;;;;22.46;84.04;94158.91;5058814;28;20434;-93
2022/08/14 07:44:10;;;;;;;2.70;1.38;;;;;;;22.42;75.35;94163.41;5059696;28;20059;-94
2022/08/14 07:46:36;;;;;;;4.47;1.50;;;;;;;22.55;76.57;94165.97;5059887;28;20028;-92
2022/08/14 07:49:08;;;;;;;3.30;1.30;;;;;;;22.70;92.49;94162.47;5058679;28;20033;-92
2022/08/14 07:51:33;;;;;;;4.70;1.70;;;;;;;22.87;83.50;94160.53;5059723;28;20433;-92
2022/08/14 07:54:03;;;;;;;2.42;1.20;;;;;;;22.88;65.46;94162.06;5058549;28;20024;-92
2022/08/14 07:56:28;;;;;;;1.50;1.40;;;;;;;22.95;73.03;94151.50;5058375;28;20035;-92
2022/08/14 07:58:53;;;;;;;2.83;1.50;;;;;;;23.08;58.04;94154.03;5058645;28;20032;-93
2022/08/14 08:01:19;;;;;;;1.48;1.20;;;;;;;23.15;64.47;94152.28;5059899;28;20027;-94
2022/08/14 08:03:48;;;;;;;4.43;1.38;;;;;;;23.21;61.53;94147.44;5058381;28;20074;-93
2022/08/14 08:06:15;;;;;;;2.08;1.20;;;;;;;23.27;59.71;94151.41;5059251;28;20465;-92
2022/08/14 08:08:45;;;;;;;2.38;1.38;;;;;;;23.38;56.49;94150.81;5059407;28;20320;-92
2022/08/14 08:11:11;;;;;;;3.17;1.55;;;;;;;23.49;58.03;94156.38;5059290;28;20115;-93
2022/08/14 08:13:40;;;;;;;4.72;1.30;;;;;;;23.58;60.98;94151.53;5058440;28;20473;-93
2022/08/14 08:16:07;;;;;;;2.70;1.15;;;;;;;23.70;58.66;94151.38;5059313;28;20029;-92
2022/08/14 08:18:32;;;;;;;2.00;1.00;;;;;;;23.76;53.95;94157.19;5041698;28;20029;-92
2022/08/14 08:20:58;;;;;;;1.58;1.17;;;;;;;23.90;51.96;94162.03;5057934;28;20032;-93
2022/08/14 08:23:25;;;;;;;1.98;1.33;;;;;;;23.94;54.26;94167.41;5058245;28;20028;-93
2022/08/14 08:25:51;;;;;;;6.68;1.40;;;;;;;23.90;54.27;94159.34;5057139;28;20323;-92
2022/08/14 08:28:30;;;;;;;2.97;1.58;;;;;;;23.98;52.51;94161.00;5057981;28;20039;-93
2022/08/14 08:31:04;;;;;;;4.70;1.33;;;;;;;24.10;57.77;94162.75;5042719;28;20033;-92
2022/08/14 08:33:31;;;;;;;1.73;1.35;;;;;;;24.09;52.65;94171.88;5058824;28;20033;-93
2022/08/14 08:36:00;;;;;;;2.63;1.60;;;;;;;24.19;52.27;94173.19;5041338;28;20078;-92
2022/08/14 08:38:26;;;;;;;1.98;1.15;;;;;;;24.22;53.21;94182.41;5059110;28;20030;-92
2022/08/14 08:40:55;;;;;;;1.25;1.10;;;;;;;24.36;52.78;94177.25;5058766;28;20104;-91
2022/08/14 08:43:28;;;;;;;1.50;1.40;;;;;;;24.50;50.77;94178.59;5057460;28;20434;-93
2022/08/14 08:45:54;;;;;;;3.13;1.40;;;;;;;24.67;51.27;94177.31;5058611;28;20350;-91
2022/08/14 08:48:21;;;;;;;1.67;1.38;;;;;;;24.65;49.90;94169.63;5058518;28;20424;-92
2022/08/14 08:50:46;;;;;;;1.85;1.27;;;;;;;24.69;49.73;94167.78;5057357;28;20028;-93
2022/08/14 08:53:12;;;;;;;3.42;1.13;;;;;;;24.69;47.89;94169.69;5057224;28;20037;-93
2022/08/14 08:55:39;;;;;;;1.75;1.38;;;;;;;24.83;48.91;94169.88;5058327;28;20079;-92
2022/08/14 08:58:07;;;;;;;2.85;1.30;;;;;;;24.69;48.83;94164.31;5057195;28;20434;-92
2022/08/14 09:00:34;;;;;;;1.67;1.23;;;;;;;24.80;47.95;94175.97;5057425;28;20032;-92
2022/08/14 09:03:04;;;;;;;1.90;1.25;;;;;;;24.87;47.83;94167.25;5040947;28;20032;-92
2022/08/14 09:05:31;;;;;;;2.90;1.08;;;;;;;24.89;47.84;94156.16;5056904;28;20500;-92
2022/08/14 09:08:18;;;;;;;1.75;1.15;;;;;;;25.16;48.22;94156.09;5058160;28;20033;-92
2022/08/14 09:10:44;;;;;;;1.70;1.15;;;;;;;25.18;49.91;94157.28;5057065;28;20033;-92
2022/08/14 09:13:11;;;;;;;2.03;1.38;;;;;;;25.43;46.94;94162.13;5056907;28;20051;-92
2022/08/14 09:15:42;;;;;;;1.77;1.27;;;;;;;25.39;45.67;94150.59;5058001;28;20120;-91
2022/08/14 09:18:08;;;;;;;1.20;0.90;;;;;;;25.41;45.48;94151.00;5056797;28;20024;-91
2022/08/14 09:20:37;;;;;;;1.58;1.00;;;;;;;25.41;45.10;94151.78;5057003;28;20037;-92
2022/08/14 09:23:03;;;;;;;1.20;1.10;;;;;;;25.62;45.15;94152.38;5056898;28;20024;-91
2022/08/14 09:25:28;;;;;;;1.38;0.80;;;;;;;25.67;41.35;94154.72;5040413;28;20032;-93
2022/08/14 09:27:54;;;;;;;1.30;1.05;;;;;;;25.71;41.55;94152.84;5056597;28;20054;-91
2022/08/14 09:30:20;;;;;;;1.20;0.88;;;;;;;25.86;40.98;94156.41;5056525;28;20029;-93
2022/08/14 09:33:00;;;;;;;2.42;1.02;;;;;;;25.91;40.70;94156.09;5056539;28;20036;-92
2022/08/14 09:35:55;;;;;;;1.02;0.93;;;;;;;25.95;41.53;94143.47;5057707;28;20040;-92
2022/08/14 09:38:45;;;;;;;2.88;0.88;;;;;;;25.96;39.10;94138.84;5057231;28;20025;-92
2022/08/14 09:41:30;;;;;;;0.85;0.82;;;;;;;25.91;40.15;94126.56;5057491;28;20509;-91
2022/08/14 09:44:03;;;;;;;3.13;0.70;;;;;;;26.05;39.03;94131.25;5057504;28;20115;-92
2022/08/14 09:46:29;;;;;;;1.75;0.85;;;;;;;26.23;39.53;94131.41;5057725;28;20124;-93
2022/08/14 09:49:05;;;;;;;1.17;0.85;;;;;;;26.35;39.68;94127.66;5056235;28;20056;-92
2022/08/14 09:51:32;;;;;;;1.55;0.98;;;;;;;26.34;37.03;94128.03;5056223;28;20083;-92
2022/08/14 09:54:08;;;;;;;3.72;1.00;;;;;;;26.47;40.34;94133.84;5056116;28;20036;-92
2022/08/14 09:56:48;;;;;;;1.23;1.00;;;;;;;26.32;38.55;94124.94;5056100;28;20060;-91
2022/08/14 09:59:16;;;;;;;2.97;1.08;;;;;;;26.59;41.67;94128.16;5057177;28;20093;-92
2022/08/14 10:01:43;;;;;;;3.60;1.67;;;;;;;26.81;41.86;94136.31;5055958;28;20036;-93
2022/08/14 10:04:22;;;;;;;3.00;0.90;;;;;;;26.71;37.47;94137.06;5055985;28;20028;-92
2022/08/14 10:06:48;;;;;;;0.80;0.70;;;;;;;26.71;37.09;94129.00;5055915;28;20036;-92
2022/08/14 10:09:13;;;;;;;1.55;0.82;;;;;;;26.74;37.71;94126.31;5057079;28;20170;-92
2022/08/14 10:11:40;;;;;;;0.88;0.80;;;;;;;26.88;39.77;94125.63;5055847;28;20029;-92
2022/08/14 10:14:17;;;;;;;2.05;0.90;;;;;;;26.95;36.72;94128.34;5055744;28;20083;-91
2022/08/14 10:16:47;;;;;;;1.65;0.82;;;;;;;27.26;37.94;94119.19;5055751;28;20108;-93
2022/08/14 10:19:20;;;;;;;1.25;0.80;;;;;;;27.27;36.78;94112.69;5055808;28;20453;-92
2022/08/14 10:22:15;;;;;;;0.95;0.85;;;;;;;27.34;36.23;94105.41;5055741;28;20029;-91
2022/08/14 10:24:45;;;;;;;2.08;1.00;;;;;;;27.20;35.70;94106.13;5030195;28;20041;-92
2022/08/14 10:27:17;;;;;;;1.60;0.90;;;;;;;27.44;36.86;94114.66;5039275;28;20135;-93
2022/08/14 10:29:47;;;;;;;1.20;0.80;;;;;;;27.54;37.40;94106.97;5055622;28;20029;-92
2022/08/14 10:32:13;;;;;;;1.95;0.90;;;;;;;27.55;36.49;94105.84;5039180;28;20072;-92
2022/08/14 10:34:39;;;;;;;1.33;0.80;;;;;;;27.70;36.93;94102.03;5039120;28;20450;-92
2022/08/14 10:37:10;;;;;;;1.17;0.77;;;;;;;27.99;37.24;94102.00;5056642;28;20032;-92
2022/08/14 10:39:37;;;;;;;1.02;0.90;;;;;;;28.16;36.63;94099.69;5055469;28;20052;-92
2022/08/14 10:42:05;;;;;;;1.48;0.90;;;;;;;27.99;35.78;94093.94;5038983;28;20041;-91
2022/08/14 10:44:38;;;;;;;1.08;0.77;;;;;;;27.71;36.38;94090.09;5055221;28;20044;-92
2022/08/14 10:47:11;;;;;;;2.63;0.82;;;;;;;27.90;35.62;94090.84;5056400;28;20219;-91
2022/08/14 10:49:38;;;;;;;1.33;0.73;;;;;;;27.32;35.86;94085.41;5039151;28;20448;-91
2022/08/14 10:52:06;;;;;;;0.70;0.70;;;;;;;27.54;35.87;94088.94;5055357;28;20279;-93
2022/08/14 10:54:41;;;;;;;1.98;0.90;;;;;;;27.57;36.10;94087.41;5038676;28;20036;-92
2022/08/14 10:57:16;;;;;;;1.55;0.95;;;;;;;28.06;36.22;94077.75;5038908;28;20422;-91
2022/08/14 10:59:53;;;;;;;1.27;0.80;;;;;;;27.79;34.68;94088.19;5039140;28;20449;-92
2022/08/14 11:02:28;;;;;;;1.10;0.82;;;;;;;27.65;36.38;94080.84;5056423;28;20036;-92
2022/08/14 11:05:07;;;;;;;1.23;0.80;;;;;;;27.89;34.49;94078.56;5056462;28;20055;-91
2022/08/14 11:07:40;;;;;;;1.52;1.08;;;;;;;28.24;34.78;94068.91;5039054;28;20326;-92
2022/08/14 11:10:11;;;;;;;2.00;0.87;;;;;;;28.19;35.30;94080.84;5039123;28;20445;-91
2022/08/14 11:12:45;;;;;;;1.10;0.93;;;;;;;28.34;34.31;94067.34;5055119;28;20389;-91
2022/08/14 11:15:11;;;;;;;2.47;0.93;;;;;;;28.49;36.03;94063.44;5056600;28;20029;-92
2022/08/14 11:17:39;;;;;;;1.10;0.65;;;;;;;28.63;35.67;94056.47;5055425;28;20029;-92
2022/08/14 11:20:07;;;;;;;1.05;0.82;;;;;;;27.96;34.88;94065.06;5038631;28;20422;-91
2022/08/14 11:22:32;;;;;;;1.80;0.82;;;;;;;28.45;34.94;94061.91;5055021;28;20091;-91
2022/08/14 11:25:05;;;;;;;2.75;1.10;;;;;;;27.80;35.81;94066.25;5038549;28;20033;-92
2022/08/14 11:27:34;;;;;;;3.20;0.88;;;;;;;28.36;35.00;94065.03;5054845;28;20037;-92
2022/08/14 11:30:21;;;;;;;1.10;0.73;;;;;;;28.43;36.41;94065.00;5055016;28;20029;-92
2022/08/14 11:32:50;;;;;;;1.45;1.00;;;;;;;28.74;34.51;94051.78;5055429;28;20151;-91
2022/08/14 11:35:18;;;;;;;3.30;0.70;;;;;;;29.13;35.36;94052.00;5038761;28;20025;-92
2022/08/14 11:37:53;;;;;;;0.80;0.77;;;;;;;29.13;35.75;94052.00;5054894;28;20034;-92
2022/08/14 11:40:20;;;;;;;1.90;1.30;;;;;;;29.08;37.74;94050.47;5055994;28;20029;-92
2022/08/14 11:42:47;;;;;;;10.35;1.30;;;;;;;28.95;39.64;94049.41;5038426;28;20037;-91
2022/08/14 11:45:15;;;;;;;1.40;1.00;;;;;;;28.51;34.89;94052.25;5054878;28;20029;-92
2022/08/14 11:47:42;;;;;;;1.77;1.00;;;;;;;28.74;35.44;94045.63;5038600;28;20039;-92
2022/08/14 11:50:19;;;;;;;1.75;1.20;;;;;;;29.13;38.00;94050.09;5038016;28;20037;-93
2022/08/14 11:52:45;;;;;;;1.98;1.05;;;;;;;29.18;35.74;94044.25;5055125;28;20060;-92
2022/08/14 11:55:12;;;;;;;1.38;0.80;;;;;;;29.30;33.98;94042.25;5055141;28;20338;-93
2022/08/14 11:57:42;;;;;;;1.15;1.00;;;;;;;29.70;35.27;94056.25;5038437;28;20149;-92
2022/08/14 12:00:15;;;;;;;1.20;0.98;;;;;;;30.16;36.72;94043.50;5039575;28;20112;-93
2022/08/14 12:02:52;;;;;;;1.60;1.20;;;;;;;30.19;33.27;94041.94;5042162;28;20033;-92
2022/08/14 12:05:47;;;;;;;2.55;1.23;;;;;;;29.67;34.86;94027.34;5058167;28;20033;-91
2022/08/14 12:08:13;;;;;;;1.33;1.00;;;;;;;29.73;35.72;94024.97;5033029;28;20186;-93
2022/08/14 12:10:41;;;;;;;2.40;1.20;;;;;;;29.79;36.78;94020.69;5041655;28;20070;-92
2022/08/14 12:13:31;;;;;;;3.47;1.27;;;;;;;30.26;35.76;94016.78;5041618;28;20025;-92
2022/08/14 12:16:08;;;;;;;1.25;1.08;;;;;;;31.06;34.07;94019.25;5058289;28;20111;-92
2022/08/14 12:18:40;;;;;;;2.05;1.30;;;;;;;30.96;35.23;94020.94;5041620;28;20124;-92
2022/08/14 12:21:20;;;;;;;2.00;1.33;;;;;;;31.22;33.69;94015.97;5058049;28;20195;-91
2022/08/14 12:23:47;;;;;;;2.83;1.17;;;;;;;31.66;35.70;94018.75;5041491;28;20021;-93
2022/08/14 12:26:19;;;;;;;2.53;1.52;;;;;;;30.99;35.34;94019.38;5041078;28;20029;-93
2022/08/14 12:28:50;;;;;;;2.13;1.17;;;;;;;30.81;35.34;94009.53;5057927;28;20033;-93
2022/08/14 12:31:19;;;;;;;2.05;1.40;;;;;;;30.97;36.78;93997.34;5057773;28;20021;-92
2022/08/14 12:34:07;;;;;;;2.00;1.25;;;;;;;30.92;36.47;93995.13;5057676;28;20021;-92